Mill Springs, Kentucky
Current Conditions -  °F | °C
As of 6:24 AM on Thursday 27 Nov 2014 (Local Time) from KEKQ Reporting Station
Light Snow Light Snow  
Wind Chill: 27°   Ceiling: 600
Heat Index: 34°   Visibility: 3mi
Dew Point: 34°   Wind: 8mph
Humidity: 100%   Direction: 310°NW
Pressure: 30.18"   Gusts: NA
Location:  36.93°N, 84.78°W
Report Text: KEKQ 271124Z AUTO 31007KT 3SM -SN BR OVC006 01/01 A3018 RMK AO2 CIG 004V011 P0001
Loading
Personal Weather Stations






























Interactive Weather Map New forecast layout! Learn more

10-Day Weather Forecast

Advertisements
Track Severe Weather on mobile